Louisville International Standiford Field
KSDF : rendu visible

Aérodrome :











RETROUVEZ-NOUS SUR...

 
LOGIN :

S'inscrire | Disclaimer

   EN    FR    IT 

 









Légende :    VFR   VFR Marginal   IFR   IFR Intensif   IFR Très Intensif
Visi : 
Plafond : 
>= 8 km
>= 3000ft
5 à 8 km
1000 à 3000 ft
1500m à 5 km
500 à 1000 ft
800 à 1500m
200 à 500 ft
< 800m
< 200 ft
Symboles :   Orages  Brouillard  Fortes neiges  Fortes précipitations  Vent > 20 kt






- Altitude de l'aérodrome : 501 ft
- Code IATA : SDF


KSDF - Louisville International Standiford Field

DERNIER METAR :
  • 200256Z 32011KT 9SM -SN OVC021 M08/M13 A3048 RMK AO2 SNB14 SLP330 P0000 60000 T10781133 51012

METARs EXPIRÉS :
  • 200156Z 33011KT 10SM OVC022 M08/M13 A3047 RMK AO2 SNE10 SLP327 P0000 T10781133
  • 200056Z 33012KT 9SM -SN OVC023 M08/M13 A3047 RMK AO2 SLP326 P0000 T10781133

TAF KSDF
Valide du 20 à 02h jusqu'au 21 à 06h UTC


200224Z 2002/2106 31011KT P6SM -SN BKN022
TEMPO 2004/2007 6SM -SN BKN017
FM200700 33009KT P6SM SCT025 BKN035
FM201400 35006KT P6SM SCT025 BKN250



MET'MAP, la Météo Aéronautique d'un coup d'oeil ! - Copyright ORBIFLY Décembre 2007 - Disclaimer

ORBIFLY MET'MAP TEAM :

Programmation & Développement : Alexandra Zaïnal
Sur une idée originale de : Baudouin d'Aumeries
Assistance à la programmation : Marc-Olivier Méhu
Soutien technique & logistique : Manuel Goepfert

Contact : metmap@orbifly.com




SOURCES & CREDITS :

   NOAA       Earth
Advisory